KGED/GED METAR and TAF weather

Enter ICAO airport designator
Station Type Date Time Source
KGED METAR 2021/06/24 05:54 UTC NOAA

KGED 240554Z AUTO 00000KT 10SM CLR 14/11 A3031 RMK AO2 SLP264 T01390111 10206 20133 53001 $


Station Type Date Time Source
KGED Decoded METAR 2021/06/24 05:54 UTC NOAA

GEORGETOWN SUSSEX CO AIRPORT , DE, United States (KGED) 38-41N 075-22W 19M
Jun 24, 2021 - 01:54 AM EDT / 2021.06.24 0554 UTC
Wind: Calm:0
Visibility: 10 mile(s):0
Sky conditions: clear
Temperature: 57.0 F (13.9 C)
Dew Point: 52.0 F (11.1 C)
Relative Humidity: 83%
Pressure (altimeter): 30.31 in. Hg (1026 hPa)
Pressure tendency: 0.00 inches (0.1 hPa) higher than three hours ago
ob: KGED 240554Z AUTO 00000KT 10SM CLR 14/11 A3031 RMK AO2 SLP264 T01390111 10206 20133 53001
cycle: 6

Station Type Date Time Source
KGED TAF UTC NOAA

Error!

Example: see airport list